createdAt,value
2022-08-25T00:00:30.952Z,87.692000
2022-08-25T00:05:33.567Z,87.596000
2022-08-25T00:10:34.855Z,87.440000
2022-08-25T00:15:17.209Z,87.320000
2022-08-25T00:20:20.056Z,87.080000
2022-08-25T00:25:22.674Z,87.002857
2022-08-25T00:30:24.778Z,86.900000
2022-08-25T00:35:27.281Z,86.708000
2022-08-25T00:40:29.175Z,86.264000
2022-08-25T00:45:32.385Z,85.952000
2022-08-25T00:50:34.907Z,85.820000
2022-08-25T00:55:17.267Z,85.640000
2022-08-25T01:00:19.444Z,85.160000
2022-08-25T01:05:21.565Z,84.800000
2022-08-25T01:10:24.081Z,84.315714
2022-08-25T01:15:26.481Z,83.864000
2022-08-25T01:20:29.512Z,83.396000
2022-08-25T01:25:30.912Z,80.492000
2022-08-25T01:30:33.121Z,77.792000
2022-08-25T01:35:35.548Z,75.416000
2022-08-25T01:40:17.823Z,74.564000
2022-08-25T01:45:20.088Z,73.856000
2022-08-25T01:50:22.839Z,73.618571
2022-08-25T01:55:24.604Z,73.760000
2022-08-25T02:00:26.825Z,73.700000
2022-08-25T02:05:29.098Z,73.820000
2022-08-25T02:10:31.546Z,74.084000
2022-08-25T02:15:34.472Z,73.832000
2022-08-25T02:20:17.410Z,74.060000
2022-08-25T02:25:20.227Z,73.820000
2022-08-25T02:30:23.180Z,73.940000
2022-08-25T02:35:25.468Z,73.940000
2022-08-25T02:40:28.102Z,74.096000
2022-08-25T02:45:32.362Z,73.952000
2022-08-25T02:50:34.208Z,73.856000
2022-08-25T02:55:16.492Z,73.496000
2022-08-25T03:00:19.352Z,73.220000
2022-08-25T03:05:21.612Z,73.220000
2022-08-25T03:10:24.602Z,73.220000
2022-08-25T03:15:27.177Z,73.220000
2022-08-25T03:20:29.371Z,72.992000
2022-08-25T03:25:32.098Z,72.680000
2022-08-25T03:30:35.063Z,72.416000
2022-08-25T03:35:17.723Z,72.164000
2022-08-25T03:40:21.400Z,71.756000
2022-08-25T03:45:24.455Z,71.612857
2022-08-25T03:50:28.107Z,71.780000
2022-08-25T03:55:30.962Z,71.600000
2022-08-25T04:00:33.100Z,71.540000
2022-08-25T04:05:16.508Z,71.516000
2022-08-25T04:10:17.985Z,71.420000
2022-08-25T04:15:21.047Z,71.072000
2022-08-25T04:20:24.379Z,70.841429
2022-08-25T04:25:28.631Z,70.940000
2022-08-25T04:30:33.195Z,70.976000
2022-08-25T04:35:19.760Z,70.508000
2022-08-25T04:40:16.924Z,69.787143
2022-08-25T04:45:19.889Z,70.076000
2022-08-25T04:50:22.355Z,70.828571
2022-08-25T04:55:25.366Z,71.060000
2022-08-25T05:00:28.290Z,71.336000
2022-08-25T05:05:31.526Z,71.900000
2022-08-25T05:10:33.956Z,71.780000
2022-08-25T05:15:16.147Z,70.940000
2022-08-25T05:20:18.984Z,70.796000
2022-08-25T05:25:21.755Z,70.664000
2022-08-25T05:30:24.289Z,70.545714
2022-08-25T05:35:27.734Z,70.544000
2022-08-25T05:40:29.348Z,70.112000
2022-08-25T05:45:32.391Z,70.256000
2022-08-25T05:50:34.927Z,70.028000
2022-08-25T05:55:18.363Z,69.200000
2022-08-25T06:00:21.609Z,68.648000
2022-08-25T06:05:24.772Z,68.180000
2022-08-25T06:10:27.563Z,67.952000
2022-08-25T06:15:30.079Z,67.940000
2022-08-25T06:20:32.606Z,68.000000
2022-08-25T06:25:35.091Z,68.000000
2022-08-25T06:30:20.276Z,67.880000
2022-08-25T06:35:19.940Z,67.712000
2022-08-25T06:40:22.948Z,67.935714
2022-08-25T06:45:25.599Z,67.976000
2022-08-25T06:50:28.071Z,68.264000
2022-08-25T06:55:30.777Z,68.060000
2022-08-25T07:00:33.392Z,67.916000
2022-08-25T07:05:43.485Z,67.712000
2022-08-25T07:10:19.395Z,67.532000
2022-08-25T07:15:21.086Z,67.508000
2022-08-25T07:20:29.014Z,67.112857
2022-08-25T07:25:26.211Z,66.692000
2022-08-25T07:30:29.074Z,66.032000
2022-08-25T07:35:37.459Z,65.540000
2022-08-25T07:40:34.457Z,64.964000
2022-08-25T07:45:20.491Z,64.580000
2022-08-25T07:50:19.856Z,64.316000
2022-08-25T07:55:22.243Z,64.400000
2022-08-25T08:00:25.208Z,64.400000
2022-08-25T08:05:27.800Z,64.556000
2022-08-25T08:11:07.366Z,64.496000
2022-08-25T08:15:33.697Z,64.556000
2022-08-25T08:20:16.067Z,64.736000
2022-08-25T08:25:21.556Z,64.472000
2022-08-25T08:30:22.122Z,64.472000
2022-08-25T08:35:24.926Z,64.400000
2022-08-25T08:40:27.688Z,64.556000
2022-08-25T08:45:30.478Z,64.760000
2022-08-25T08:50:33.578Z,64.856000
2022-08-25T08:55:16.369Z,64.688000
2022-08-25T09:00:20.391Z,64.292000
2022-08-25T09:05:23.066Z,64.040000
2022-08-25T09:10:25.770Z,64.052000
2022-08-25T09:15:29.020Z,64.232000
2022-08-25T09:20:31.194Z,64.712000
2022-08-25T09:25:52.256Z,65.156000
2022-08-25T09:30:36.077Z,65.036000
2022-08-25T09:35:18.120Z,64.892000
2022-08-25T09:40:20.835Z,64.688000
2022-08-25T09:45:23.803Z,64.142857
2022-08-25T09:50:26.361Z,63.836000
2022-08-25T09:55:29.108Z,63.980000
2022-08-25T10:00:32.050Z,64.364000
2022-08-25T10:05:34.584Z,64.664000
2022-08-25T10:10:17.471Z,64.628000
2022-08-25T10:15:29.617Z,64.364000
2022-08-25T10:20:23.779Z,64.052857
2022-08-25T10:25:26.136Z,63.608000
2022-08-25T10:30:29.011Z,63.284000
2022-08-25T10:35:31.508Z,63.188000
2022-08-25T10:40:35.317Z,63.284000
2022-08-25T10:45:22.035Z,63.140000
2022-08-25T10:50:19.852Z,62.996000
2022-08-25T10:55:22.111Z,62.648000
2022-08-25T11:00:31.285Z,62.535714
2022-08-25T11:05:27.467Z,63.896000
2022-08-25T11:10:29.814Z,64.760000
2022-08-25T11:15:32.747Z,64.568000
2022-08-25T11:20:35.610Z,64.004000
2022-08-25T11:25:18.370Z,63.416000
2022-08-25T11:30:20.599Z,63.272000
2022-08-25T11:35:23.457Z,63.204286
2022-08-25T11:40:26.257Z,63.140000
2022-08-25T11:45:29.603Z,63.248000
2022-08-25T11:50:32.344Z,63.056000
2022-08-25T11:55:34.763Z,60.020000
2022-08-25T12:00:17.009Z,59.228000
2022-08-25T12:05:19.727Z,59.108000
2022-08-25T12:10:22.689Z,59.784286
2022-08-25T12:15:24.871Z,60.080000
2022-08-25T12:20:28.104Z,60.080000
2022-08-25T12:25:33.890Z,60.080000
2022-08-25T12:30:36.635Z,59.900000
2022-08-25T12:35:17.335Z,59.588000
2022-08-25T12:40:19.698Z,59.144000
2022-08-25T12:45:22.382Z,60.105714
2022-08-25T12:50:25.229Z,60.260000
2022-08-25T12:55:28.365Z,59.888000
2022-08-25T13:00:30.992Z,59.180000
2022-08-25T13:05:33.507Z,58.676000
2022-08-25T13:10:15.976Z,58.784000
2022-08-25T13:15:19.013Z,59.264000
2022-08-25T13:20:22.055Z,59.960000
2022-08-25T13:25:32.382Z,61.327143
2022-08-25T13:30:27.948Z,62.516000
2022-08-25T13:35:32.621Z,63.548000
2022-08-25T13:40:32.824Z,63.896000
2022-08-25T13:45:41.223Z,64.760000
2022-08-25T13:50:18.489Z,65.624000
2022-08-25T13:55:20.930Z,66.344000
2022-08-25T14:00:23.406Z,66.791429
2022-08-25T14:05:25.979Z,67.544000
2022-08-25T14:10:29.574Z,68.312000
2022-08-25T14:15:32.230Z,69.044000
2022-08-25T14:20:34.035Z,70.004000
2022-08-25T14:25:16.912Z,69.716000
2022-08-25T14:30:28.927Z,69.200000
2022-08-25T14:35:22.693Z,69.221429
2022-08-25T14:40:24.924Z,69.212000
2022-08-25T14:45:28.396Z,69.356000
2022-08-25T14:50:30.123Z,70.472000
2022-08-25T14:55:33.037Z,71.624000
2022-08-25T15:00:36.297Z,72.068000
2022-08-25T15:05:18.918Z,71.804000
2022-08-25T15:10:21.921Z,72.236000
2022-08-25T15:15:25.154Z,72.050000
2022-08-25T15:20:29.163Z,71.912000
2022-08-25T15:25:31.696Z,72.188000
2022-08-25T15:30:34.314Z,72.944000
2022-08-25T15:35:17.234Z,73.280000
2022-08-25T15:40:19.963Z,73.304000
2022-08-25T15:45:22.458Z,73.528571
2022-08-25T15:50:26.187Z,73.520000
2022-08-25T15:55:28.735Z,73.940000
2022-08-25T16:00:31.843Z,73.856000
2022-08-25T16:05:34.271Z,74.840000
2022-08-25T16:10:16.748Z,76.016000
2022-08-25T16:15:24.045Z,77.240000
2022-08-25T16:20:23.431Z,76.292857
2022-08-25T16:25:25.640Z,75.788000
2022-08-25T16:30:28.490Z,75.548000
2022-08-25T16:35:31.683Z,76.268000
2022-08-25T16:40:34.687Z,76.856000
2022-08-25T16:45:17.443Z,76.784000
2022-08-25T16:50:20.537Z,77.024000
2022-08-25T16:55:23.291Z,77.630000
2022-08-25T17:00:25.694Z,78.368000
2022-08-25T17:05:28.268Z,78.944000
2022-08-25T17:10:31.147Z,79.016000
2022-08-25T17:15:33.598Z,79.016000
2022-08-25T17:20:15.910Z,78.308000
2022-08-25T17:25:18.928Z,78.608000
2022-08-25T17:30:21.555Z,79.436000
2022-08-25T17:35:25.094Z,79.507143
2022-08-25T17:40:26.527Z,79.160000
2022-08-25T17:45:28.875Z,79.448000
2022-08-25T17:50:31.507Z,79.892000
2022-08-25T17:55:34.467Z,80.096000
2022-08-25T18:00:16.899Z,80.960000
2022-08-25T18:05:20.341Z,81.584000
2022-08-25T18:10:22.950Z,82.271429
2022-08-25T18:15:25.499Z,81.392000
2022-08-25T18:20:28.436Z,82.484000
2022-08-25T18:25:31.018Z,83.348000
2022-08-25T18:30:34.189Z,84.284000
2022-08-25T18:35:17.371Z,85.112000
2022-08-25T18:40:20.319Z,85.004000
2022-08-25T18:45:22.821Z,85.125714
2022-08-25T18:50:25.370Z,85.388000
2022-08-25T18:55:27.789Z,85.112000
2022-08-25T19:00:30.644Z,85.208000
2022-08-25T19:05:33.921Z,85.220000
2022-08-25T19:10:16.154Z,85.484000
2022-08-25T19:15:18.929Z,85.976000
2022-08-25T19:20:21.933Z,86.744000
2022-08-25T19:25:24.460Z,86.064286
2022-08-25T19:30:26.966Z,86.048000
2022-08-25T19:35:31.842Z,86.168000
2022-08-25T19:40:32.863Z,86.912000
2022-08-25T19:45:35.619Z,86.144000
2022-08-25T19:50:18.691Z,87.164000
2022-08-25T19:55:21.380Z,87.416000
2022-08-25T20:00:23.940Z,86.745714
2022-08-25T20:05:26.793Z,87.464000
2022-08-25T20:10:29.510Z,86.528000
2022-08-25T20:15:34.357Z,86.648000
2022-08-25T20:20:35.645Z,87.200000
2022-08-25T20:25:17.786Z,87.488000
2022-08-25T20:30:20.459Z,88.448000
2022-08-25T20:35:26.696Z,88.918571
2022-08-25T20:40:26.430Z,88.112000
2022-08-25T20:45:29.149Z,87.404000
2022-08-25T20:50:32.268Z,87.752000
2022-08-25T20:55:41.693Z,89.828000
2022-08-25T21:00:18.001Z,88.496000
2022-08-25T21:05:19.408Z,87.692000
2022-08-25T21:10:21.570Z,88.016000
2022-08-25T21:15:24.276Z,89.535714
2022-08-25T21:20:26.904Z,89.600000
2022-08-25T21:25:30.022Z,89.936000
2022-08-25T21:30:32.435Z,89.060000
2022-08-25T21:35:34.913Z,88.100000
2022-08-25T21:40:17.808Z,89.432000
2022-08-25T21:45:20.881Z,89.792000
2022-08-25T21:50:23.089Z,89.895714
2022-08-25T21:55:25.793Z,90.572000
2022-08-25T22:00:28.701Z,89.624000
2022-08-25T22:05:31.723Z,88.580000
2022-08-25T22:10:34.437Z,89.456000
2022-08-25T22:15:16.279Z,89.288000
2022-08-25T22:20:18.607Z,90.440000
2022-08-25T22:25:21.606Z,90.824000
2022-08-25T22:30:23.664Z,90.911429
2022-08-25T22:35:27.110Z,90.152000
2022-08-25T22:40:30.588Z,90.692000
2022-08-25T22:45:33.461Z,91.148000
2022-08-25T22:50:35.784Z,90.236000
2022-08-25T22:55:18.123Z,89.528000
2022-08-25T23:00:20.433Z,89.900000
2022-08-25T23:05:23.045Z,89.805714
2022-08-25T23:10:25.855Z,89.516000
2022-08-25T23:15:28.187Z,89.768000
2022-08-25T23:20:30.711Z,90.248000
2022-08-25T23:25:33.894Z,90.428000
2022-08-25T23:30:16.124Z,90.380000
2022-08-25T23:35:19.376Z,89.864000
2022-08-25T23:40:21.843Z,90.380000
2022-08-25T23:45:23.986Z,90.294286
2022-08-25T23:50:25.886Z,90.176000
2022-08-25T23:55:33.025Z,90.392000
